Terminal Aerodrome Forecast
Issued by NWS Charleston, WV

Current Version | Previous Version | Graphics & Text | Print | Product List | Glossary On
Versions: 1 2 3 4 5 6 7 8 9 10 11 12 13 14 15 16 17 18 19 20 21 22 23 24 25 26 27
000
FTUS41 KRLX 171139
TAFEKN
TAF
KEKN 171139Z 1712/1812 00000KT 1/2SM FG BKN002
     FM171300 00000KT 4SM BR SCT003
     FM171330 VRB03KT P6SM SCT150
     FM171700 23004KT P6SM SCT040
     FM172200 22004KT 4SM TSRA BKN040CB
     FM180000 VRB03KT P6SM SCT040
     FM180700 21004KT 3SM SHRA BR VCTS BKN015CB=

USA.gov is the U.S. government's official web portal to all federal, state and local government web resources and services.